Time;durP1;ratioP1;P1;durP2;ratioP2;P2;SDS_P1;SDS_P2;PMS_P1;PMS_P2;Temp;Humidity;BMP_temperature;BMP_pressure;BME280_temperature;BME280_humidity;BME280_pressure;Samples;Min_cycle;Max_cycle;Signal;HPM_P1;HPM_P2
2022/08/12 00:43:35;;;;;;;1.75;1.75;;;25.50;61.40;;;;;;5068723;28;43936;-75
2022/08/12 00:48:49;;;;;;;1.75;1.75;;;25.40;61.20;;;;;;5068111;28;43913;-74
2022/08/12 00:51:17;;;;;;;1.60;1.60;;;25.30;61.80;;;;;;5068218;28;43386;-73
2022/08/12 00:53:45;;;;;;;1.70;1.70;;;25.30;62.00;;;;;;5068660;28;43984;-76
2022/08/12 00:56:13;;;;;;;1.50;1.50;;;25.30;61.90;;;;;;5067839;28;43987;-73
2022/08/12 00:58:46;;;;;;;1.73;1.73;;;25.30;61.90;;;;;;5067784;28;44003;-74
2022/08/12 01:01:14;;;;;;;1.73;1.73;;;25.30;62.40;;;;;;5067637;28;43376;-75
2022/08/12 01:12:20;;;;;;;1.60;1.60;;;25.50;61.70;;;;;;5004182;28;44027;-73
2022/08/12 01:14:48;;;;;;;1.60;1.60;;;25.60;61.00;;;;;;5006423;28;43503;-74
2022/08/12 01:17:16;;;;;;;1.77;1.77;;;25.60;60.90;;;;;;5023043;28;45378;-73
2022/08/12 01:19:47;;;;;;;1.70;1.70;;;25.60;60.90;;;;;;5069774;28;43996;-74
2022/08/12 01:22:28;;;;;;;1.55;1.55;;;25.50;61.30;;;;;;5070067;28;43937;-74
2022/08/12 01:25:04;;;;;;;1.80;1.80;;;25.50;61.40;;;;;;5070281;28;43394;-73
2022/08/12 01:27:33;;;;;;;1.50;1.50;;;25.50;61.10;;;;;;5069953;28;44836;-74
2022/08/12 01:30:02;;;;;;;1.50;1.50;;;25.40;62.00;;;;;;5069701;28;44033;-74
2022/08/12 01:32:36;;;;;;;1.60;1.60;;;25.30;61.90;;;;;;5068582;28;44073;-73
2022/08/12 01:35:06;;;;;;;1.67;1.67;;;25.30;61.90;;;;;;5068909;28;43820;-74
2022/08/12 01:37:36;;;;;;;1.92;1.83;;;25.40;61.90;;;;;;5069907;28;43937;-73
2022/08/12 01:40:07;;;;;;;1.65;1.65;;;25.50;61.70;;;;;;5069413;28;43979;-74
2022/08/12 01:43:05;;;;;;;1.50;1.50;;;25.60;61.20;;;;;;5069664;28;44073;-75
2022/08/12 01:45:35;;;;;;;1.63;1.63;;;25.60;60.80;;;;;;5070484;28;43919;-74
2022/08/12 01:48:15;;;;;;;1.58;1.58;;;25.60;60.60;;;;;;5069758;28;44325;-74
2022/08/12 01:50:50;;;;;;;1.80;1.80;;;25.50;61.00;;;;;;5069428;28;43937;-74
2022/08/12 01:53:19;;;;;;;1.60;1.60;;;25.50;61.90;;;;;;5069365;28;43997;-75
2022/08/12 01:55:48;;;;;;;1.53;1.53;;;25.50;61.40;;;;;;5068392;28;43557;-73
2022/08/12 01:58:25;;;;;;;1.58;1.58;;;25.40;61.10;;;;;;5067839;28;45794;-74
2022/08/12 02:00:57;;;;;;;1.80;1.80;;;25.40;61.70;;;;;;5067449;28;45585;-74
2022/08/12 02:12:33;;;;;;;1.60;1.60;;;25.20;62.20;;;;;;5065320;28;43974;-74
2022/08/12 02:15:05;;;;;;;1.60;1.60;;;25.20;62.20;;;;;;5069482;28;43831;-73
2022/08/12 02:17:45;;;;;;;1.70;1.60;;;25.30;62.10;;;;;;5069712;28;43411;-74
2022/08/12 02:20:27;;;;;;;1.60;1.60;;;25.40;61.90;;;;;;5067423;28;45684;-73
2022/08/12 02:23:15;;;;;;;1.60;1.50;;;25.50;61.50;;;;;;5068691;28;43831;-74
2022/08/12 02:25:44;;;;;;;1.63;1.63;;;25.60;61.00;;;;;;5068082;28;43364;-74
2022/08/12 02:28:14;;;;;;;1.60;1.60;;;25.60;60.70;;;;;;5067690;28;43885;-73
2022/08/12 02:30:43;;;;;;;1.50;1.50;;;25.60;60.70;;;;;;5068796;28;43923;-74
2022/08/12 02:33:11;;;;;;;1.60;1.60;;;25.50;61.20;;;;;;5068851;28;44030;-74
2022/08/12 02:35:39;;;;;;;1.60;1.60;;;25.50;61.40;;;;;;5068890;28;44003;-74
2022/08/12 02:38:09;;;;;;;1.50;1.50;;;25.40;61.20;;;;;;5068928;28;43597;-74
2022/08/12 02:40:37;;;;;;;1.65;1.65;;;25.40;61.10;;;;;;5067805;28;43949;-74
2022/08/12 02:43:11;;;;;;;1.50;1.50;;;25.30;61.90;;;;;;5068611;28;43377;-73
2022/08/12 02:45:44;;;;;;;1.60;1.60;;;25.30;61.80;;;;;;5068836;28;43932;-73
2022/08/12 02:48:15;;;;;;;1.80;1.80;;;25.30;61.60;;;;;;5069019;28;43415;-74
2022/08/12 02:50:46;;;;;;;1.77;1.70;;;25.30;61.80;;;;;;5068412;28;43946;-74
2022/08/12 02:53:14;;;;;;;1.60;1.60;;;25.20;62.10;;;;;;5068424;28;43442;-74
2022/08/12 02:55:45;;;;;;;1.50;1.50;;;25.20;62.90;;;;;;5067069;28;43447;-73
2022/08/12 02:58:13;;;;;;;1.60;1.60;;;25.30;61.90;;;;;;5067262;28;43417;-74
2022/08/12 03:00:43;;;;;;;1.50;1.50;;;25.40;61.90;;;;;;5068111;28;43893;-73
2022/08/12 03:03:13;;;;;;;1.90;1.80;;;25.50;61.30;;;;;;5068318;28;44010;-74
2022/08/12 03:05:45;;;;;;;1.70;1.70;;;25.60;60.80;;;;;;5068169;28;44038;-73
2022/08/12 03:08:13;;;;;;;1.90;1.67;;;25.60;60.50;;;;;;5068673;28;43924;-73
2022/08/12 03:11:02;;;;;;;2.07;1.67;;;25.60;61.00;;;;;;5066526;28;45005;-73
2022/08/12 03:13:32;;;;;;;1.80;1.80;;;25.50;60.80;;;;;;5068529;28;43948;-74
2022/08/12 03:16:01;;;;;;;1.67;1.67;;;25.50;61.10;;;;;;5066722;28;43860;-74
2022/08/12 03:18:30;;;;;;;1.60;1.60;;;25.50;61.20;;;;;;5068663;28;43743;-74
2022/08/12 03:20:59;;;;;;;1.50;1.50;;;25.40;60.90;;;;;;5067637;28;43786;-74
2022/08/12 03:23:27;;;;;;;1.67;1.67;;;25.30;61.70;;;;;;5068137;28;43954;-74
2022/08/12 03:25:58;;;;;;;1.83;1.73;;;25.30;61.80;;;;;;5068154;28;43984;-73
2022/08/12 03:31:15;;;;;;;1.90;1.90;;;25.30;61.50;;;;;;5063572;28;44032;-73
2022/08/12 03:33:43;;;;;;;1.70;1.70;;;25.20;62.00;;;;;;5067828;28;43881;-74
2022/08/12 03:36:29;;;;;;;1.45;1.45;;;25.20;62.30;;;;;;5067816;28;43375;-74
2022/08/12 03:39:19;;;;;;;1.30;1.30;;;25.30;62.20;;;;;;5068251;28;43955;-74
2022/08/12 03:42:21;;;;;;;1.40;1.40;;;25.30;61.80;;;;;;5065612;28;45596;-73
2022/08/12 04:02:13;;;;;;;1.73;1.73;;;25.40;61.00;;;;;;5067808;28;43920;-74
2022/08/12 04:04:44;;;;;;;1.70;1.60;;;25.30;61.90;;;;;;5067383;28;43834;-74
2022/08/12 04:07:13;;;;;;;1.87;1.60;;;25.30;61.80;;;;;;5067190;28;43943;-73
2022/08/12 04:09:42;;;;;;;1.60;1.60;;;25.40;61.80;;;;;;5067646;28;43916;-74
2022/08/12 04:14:59;;;;;;;1.60;1.60;;;25.50;60.90;;;;;;5067080;28;43615;-74
2022/08/12 04:17:27;;;;;;;1.65;1.65;;;25.50;60.70;;;;;;5066013;28;43885;-73
2022/08/12 04:19:57;;;;;;;1.50;1.50;;;25.50;60.40;;;;;;5067200;28;43940;-74
2022/08/12 04:22:29;;;;;;;1.53;1.53;;;25.50;61.40;;;;;;5067374;28;43944;-74
2022/08/12 04:24:59;;;;;;;1.60;1.60;;;25.40;61.60;;;;;;5067162;28;43946;-73
2022/08/12 04:27:30;;;;;;;1.60;1.60;;;25.40;61.10;;;;;;5067133;28;44003;-74
2022/08/12 04:29:58;;;;;;;1.60;1.60;;;25.30;60.90;;;;;;5067193;28;43933;-73
2022/08/12 04:32:46;;;;;;;1.55;1.55;;;25.30;61.50;;;;;;5067835;28;43983;-74
2022/08/12 04:35:19;;;;;;;1.50;1.50;;;25.30;62.70;;;;;;5067224;28;44650;-74
2022/08/12 04:37:50;;;;;;;1.50;1.50;;;25.30;61.70;;;;;;5066784;28;43966;-73
2022/08/12 04:40:28;;;;;;;1.80;1.80;;;25.20;61.20;;;;;;5066410;28;43912;-73
2022/08/12 04:42:57;;;;;;;1.48;1.48;;;25.20;62.20;;;;;;5065825;28;43781;-73
2022/08/12 04:45:25;;;;;;;1.67;1.67;;;25.20;62.20;;;;;;5066826;28;43963;-74
2022/08/12 04:47:53;;;;;;;1.65;1.65;;;25.30;62.10;;;;;;5066847;28;43920;-74
2022/08/12 04:50:23;;;;;;;1.70;1.70;;;25.30;61.80;;;;;;5066171;28;43986;-73
2022/08/12 04:53:04;;;;;;;1.70;1.70;;;25.50;62.00;;;;;;5067531;28;43870;-74
2022/08/12 04:55:32;;;;;;;1.60;1.60;;;25.60;60.70;;;;;;5067063;28;43606;-74
2022/08/12 04:58:00;;;;;;;1.47;1.47;;;25.60;60.50;;;;;;5065281;28;44622;-74
2022/08/12 05:00:28;;;;;;;1.50;1.50;;;25.60;60.20;;;;;;5066779;28;43918;-74
2022/08/12 05:02:56;;;;;;;1.50;1.50;;;25.50;60.30;;;;;;5067132;28;43932;-74
2022/08/12 05:05:25;;;;;;;1.40;1.40;;;25.50;61.00;;;;;;5066672;28;43927;-74
2022/08/12 05:07:53;;;;;;;1.65;1.65;;;25.50;61.10;;;;;;5059702;28;43991;-74
2022/08/12 05:10:22;;;;;;;1.35;1.35;;;25.40;60.70;;;;;;5066738;28;43968;-73
2022/08/12 05:13:04;;;;;;;1.60;1.60;;;25.30;60.90;;;;;;5065693;28;43992;-74
2022/08/12 05:15:33;;;;;;;1.67;1.67;;;25.30;61.80;;;;;;5065417;28;45749;-74
2022/08/12 05:18:05;;;;;;;1.53;1.53;;;25.30;61.70;;;;;;5066668;28;43947;-75
2022/08/12 05:20:48;;;;;;;1.93;1.93;;;25.30;61.10;;;;;;5066523;28;43482;-73
2022/08/12 05:23:18;;;;;;;1.60;1.60;;;25.20;61.00;;;;;;5065366;28;43620;-73
2022/08/12 05:25:47;;;;;;;1.40;1.40;;;25.20;62.20;;;;;;5066537;28;43981;-74
2022/08/12 05:28:16;;;;;;;1.40;1.40;;;25.20;61.90;;;;;;5066434;28;43436;-74
2022/08/12 05:30:45;;;;;;;1.50;1.40;;;25.30;61.80;;;;;;5066512;28;44030;-74
2022/08/12 05:33:14;;;;;;;1.50;1.50;;;25.40;61.40;;;;;;5066772;28;43445;-74
2022/08/12 05:35:44;;;;;;;1.60;1.60;;;25.50;60.70;;;;;;5064659;28;46064;-73
2022/08/12 05:41:00;;;;;;;1.90;1.80;;;25.60;59.70;;;;;;5065585;28;43969;-74
2022/08/12 05:43:28;;;;;;;1.50;1.50;;;25.50;59.60;;;;;;5066861;28;43877;-74
2022/08/12 05:45:56;;;;;;;1.52;1.52;;;25.40;60.20;;;;;;5066202;28;43615;-73
2022/08/12 05:48:27;;;;;;;1.50;1.50;;;25.40;60.70;;;;;;5066312;28;43999;-73
2022/08/12 05:50:55;;;;;;;1.60;1.60;;;25.30;59.70;;;;;;5065874;28;43502;-73
2022/08/12 05:53:24;;;;;;;1.50;1.50;;;25.30;59.60;;;;;;5066503;28;44008;-73
2022/08/12 05:55:53;;;;;;;1.70;1.70;;;25.30;60.60;;;;;;5066107;28;43918;-74
2022/08/12 05:58:21;;;;;;;1.63;1.63;;;25.20;60.90;;;;;;5065950;28;43946;-73
2022/08/12 06:00:49;;;;;;;1.60;1.60;;;25.20;59.80;;;;;;5066448;28;43972;-74
2022/08/12 06:03:17;;;;;;;1.48;1.48;;;25.20;59.40;;;;;;5069661;28;43581;-74
2022/08/12 06:05:48;;;;;;;1.80;1.70;;;25.10;61.20;;;;;;5069403;28;45081;-73
2022/08/12 06:08:24;;;;;;;1.50;1.50;;;25.10;61.00;;;;;;5067840;28;44704;-73
2022/08/12 06:10:52;;;;;;;4.30;1.77;;;25.20;61.00;;;;;;5067869;28;43399;-74
2022/08/12 06:13:20;;;;;;;1.80;1.80;;;25.30;60.50;;;;;;5069868;28;43841;-73
2022/08/12 06:16:08;;;;;;;1.67;1.67;;;25.40;60.10;;;;;;5069272;28;43932;-74
2022/08/12 06:18:38;;;;;;;1.77;1.77;;;25.50;59.70;;;;;;5061270;28;43378;-74
2022/08/12 06:21:07;;;;;;;1.55;1.55;;;25.50;59.50;;;;;;5061648;28;44022;-73
2022/08/12 06:23:36;;;;;;;1.75;1.70;;;25.50;59.20;;;;;;5068930;28;43824;-74
2022/08/12 06:26:11;;;;;;;1.80;1.80;;;25.40;59.90;;;;;;5069106;28;43762;-73
2022/08/12 06:28:39;;;;;;;1.90;1.80;;;25.40;60.30;;;;;;5069018;28;44055;-73
2022/08/12 06:31:07;;;;;;;1.60;1.60;;;25.30;60.00;;;;;;5067354;28;44078;-74
2022/08/12 06:33:54;;;;;;;1.60;1.60;;;25.30;60.00;;;;;;5069571;28;43877;-74
2022/08/12 06:36:42;;;;;;;1.80;1.70;;;25.20;61.00;;;;;;5068835;28;43911;-74
2022/08/12 06:39:13;;;;;;;1.73;1.73;;;25.20;61.00;;;;;;5061201;28;44041;-73
2022/08/12 06:44:49;;;;;;;1.67;1.67;;;25.40;61.10;;;;;;5069329;28;44001;-73
2022/08/12 06:47:20;;;;;;;1.80;1.70;;;25.50;59.90;;;;;;5068732;28;43983;-73
2022/08/12 06:49:48;;;;;;;1.60;1.60;;;25.50;59.80;;;;;;5068753;28;43944;-73
2022/08/12 06:52:20;;;;;;;1.70;1.70;;;25.50;59.60;;;;;;5061968;28;43948;-75
2022/08/12 06:54:52;;;;;;;1.60;1.60;;;25.40;60.10;;;;;;5069122;28;43888;-73
2022/08/12 06:57:22;;;;;;;1.60;1.60;;;25.30;60.30;;;;;;5068598;28;44697;-74
2022/08/12 07:00:11;;;;;;;1.93;1.83;;;25.30;60.10;;;;;;5068465;28;43994;-74
2022/08/12 07:02:39;;;;;;;1.50;1.50;;;25.30;59.90;;;;;;5068521;28;43976;-74
2022/08/12 07:05:09;;;;;;;1.60;1.60;;;25.20;60.80;;;;;;5067513;28;43949;-73
2022/08/12 07:07:37;;;;;;;1.70;1.63;;;25.20;60.90;;;;;;5066929;28;45478;-74
2022/08/12 07:10:07;;;;;;;1.67;1.67;;;25.10;60.80;;;;;;5068605;28;43963;-74
2022/08/12 07:12:35;;;;;;;1.70;1.70;;;25.10;60.40;;;;;;5068246;28;43404;-74
2022/08/12 07:15:04;;;;;;;1.77;1.77;;;25.10;60.80;;;;;;5069206;28;44043;-74
2022/08/12 07:17:35;;;;;;;1.60;1.60;;;25.10;61.30;;;;;;5066980;28;45488;-74
2022/08/12 07:20:05;;;;;;;1.70;1.67;;;25.10;61.10;;;;;;5068449;28;43938;-74
2022/08/12 07:22:33;;;;;;;1.50;1.50;;;25.20;60.80;;;;;;5066742;28;43969;-74
2022/08/12 07:27:54;;;;;;;1.53;1.53;;;25.40;59.80;;;;;;5068229;28;44068;-74
2022/08/12 07:30:22;;;;;;;1.50;1.50;;;25.50;59.60;;;;;;5067841;28;44033;-73
2022/08/12 07:32:51;;;;;;;1.40;1.40;;;25.50;59.60;;;;;;5068195;28;43952;-74
2022/08/12 07:35:19;;;;;;;1.70;1.70;;;25.50;59.40;;;;;;5067139;28;43597;-74
2022/08/12 07:37:49;;;;;;;1.70;1.70;;;25.40;60.30;;;;;;5067960;28;44689;-73
2022/08/12 07:40:17;;;;;;;2.42;1.83;;;25.30;60.20;;;;;;5067584;28;44181;-73
2022/08/12 07:42:45;;;;;;;1.83;1.80;;;25.30;60.30;;;;;;5067650;28;43902;-74
2022/08/12 07:45:15;;;;;;;2.63;1.67;;;25.20;60.10;;;;;;5066863;28;43542;-74
2022/08/12 07:47:43;;;;;;;1.70;1.70;;;25.10;60.80;;;;;;5067857;28;43942;-73
2022/08/12 07:50:11;;;;;;;3.10;2.00;;;25.10;60.90;;;;;;5067685;28;44044;-73
2022/08/12 07:52:41;;;;;;;1.70;1.70;;;25.10;60.80;;;;;;5067917;28;43819;-74
2022/08/12 07:55:10;;;;;;;1.53;1.50;;;25.10;60.80;;;;;;5068001;28;43995;-73
2022/08/12 07:57:48;;;;;;;1.60;1.50;;;25.00;61.60;;;;;;5067364;28;44021;-75
2022/08/12 08:00:18;;;;;;;1.67;1.67;;;25.00;61.60;;;;;;5067657;28;44283;-74
2022/08/12 08:02:48;;;;;;;1.83;1.83;;;25.10;61.00;;;;;;5067504;28;43399;-73
2022/08/12 08:05:17;;;;;;;1.53;1.53;;;25.20;60.50;;;;;;5066577;28;43884;-74
2022/08/12 08:07:45;;;;;;;1.63;1.63;;;25.30;60.00;;;;;;5067482;28;43959;-74
2022/08/12 08:10:13;;;;;;;1.80;1.70;;;25.50;59.80;;;;;;5067142;28;43963;-73
2022/08/12 08:12:57;;;;;;;1.80;1.80;;;25.50;59.90;;;;;;5067413;28;43382;-73
2022/08/12 08:15:29;;;;;;;1.47;1.47;;;25.50;60.30;;;;;;5066355;28;43979;-73
2022/08/12 08:18:18;;;;;;;1.60;1.60;;;25.40;60.20;;;;;;5067490;28;45013;-74
2022/08/12 08:20:54;;;;;;;1.40;1.40;;;25.30;60.40;;;;;;5065749;28;45891;-74
2022/08/12 08:24:13;;;;;;;1.67;1.67;;;25.30;60.30;;;;;;5064946;28;43913;-74
2022/08/12 08:26:14;;;;;;;1.50;1.50;;;25.20;59.60;;;;;;5067514;28;43962;-73
2022/08/12 08:28:42;;;;;;;2.20;2.10;;;25.10;61.00;;;;;;5065732;28;45765;-74
2022/08/12 08:31:13;;;;;;;1.60;1.60;;;25.10;60.80;;;;;;5067401;28;43411;-73
2022/08/12 08:33:41;;;;;;;1.50;1.50;;;25.10;59.80;;;;;;5067116;28;43782;-72
2022/08/12 08:36:29;;;;;;;1.60;1.60;;;25.00;59.70;;;;;;5067782;28;43979;-74
2022/08/12 08:38:57;;;;;;;1.40;1.40;;;25.00;61.20;;;;;;5067120;28;43993;-73
2022/08/12 08:44:32;;;;;;;1.53;1.50;;;25.10;60.00;;;;;;5067171;28;43957;-74
2022/08/12 08:47:04;;;;;;;1.80;1.80;;;25.20;61.10;;;;;;5067600;28;44099;-74
2022/08/12 08:49:32;;;;;;;1.73;1.67;;;25.30;59.90;;;;;;5067113;28;44846;-73
2022/08/12 08:52:04;;;;;;;1.53;1.53;;;25.40;59.50;;;;;;5065862;28;44642;-73
2022/08/12 08:54:33;;;;;;;1.60;1.50;;;25.40;58.70;;;;;;5067280;28;43871;-74
2022/08/12 08:57:01;;;;;;;1.70;1.70;;;25.40;57.70;;;;;;5066009;28;44018;-73
2022/08/12 08:59:29;;;;;;;1.50;1.50;;;25.30;59.50;;;;;;5067009;28;43937;-73
2022/08/12 09:01:59;;;;;;;1.43;1.43;;;25.30;59.80;;;;;;5066768;28;43885;-73
2022/08/12 09:04:28;;;;;;;1.50;1.50;;;25.20;60.00;;;;;;5066480;28;44110;-73
2022/08/12 09:07:17;;;;;;;1.40;1.40;;;25.20;60.30;;;;;;5065599;28;44222;-73
2022/08/12 09:10:06;;;;;;;1.50;1.50;;;25.10;59.70;;;;;;5066857;28;44795;-73
2022/08/12 09:15:29;;;;;;;1.40;1.40;;;25.10;60.60;;;;;;5067066;28;44066;-73
2022/08/12 09:18:04;;;;;;;1.70;1.60;;;25.00;60.40;;;;;;5067385;28;44001;-74
2022/08/12 09:20:37;;;;;;;2.00;1.90;;;25.00;60.80;;;;;;5066877;28;43964;-72
2022/08/12 09:23:09;;;;;;;1.57;1.57;;;25.00;60.80;;;;;;5064936;28;44787;-74
2022/08/12 09:25:59;;;;;;;1.60;1.60;;;25.00;60.20;;;;;;5065136;28;43510;-74
2022/08/12 09:28:32;;;;;;;1.60;1.60;;;25.10;60.10;;;;;;5067240;28;44244;-74
2022/08/12 09:31:00;;;;;;;1.60;1.60;;;25.30;59.60;;;;;;5066439;28;43995;-74
2022/08/12 09:33:32;;;;;;;1.60;1.60;;;25.40;59.40;;;;;;5064721;28;44410;-73
2022/08/12 09:36:21;;;;;;;1.50;1.50;;;25.40;59.50;;;;;;5069326;28;43950;-73
2022/08/12 09:39:09;;;;;;;1.60;1.60;;;25.30;59.80;;;;;;5070514;28;43955;-74
2022/08/12 09:45:21;;;;;;;1.70;1.70;;;25.20;59.20;;;;;;5068469;28;45791;-74
2022/08/12 09:47:54;;;;;;;1.60;1.60;;;25.20;60.10;;;;;;5069871;28;43363;-73
2022/08/12 09:50:27;;;;;;;1.40;1.40;;;25.10;61.40;;;;;;5068725;28;43934;-74
2022/08/12 09:53:08;;;;;;;1.53;1.53;;;25.10;60.50;;;;;;5069753;28;43590;-73
2022/08/12 09:55:43;;;;;;;1.50;1.50;;;25.10;60.30;;;;;;5064080;28;44034;-73
2022/08/12 09:58:32;;;;;;;1.73;1.60;;;25.20;59.80;;;;;;5070030;28;43892;-75
2022/08/12 10:01:20;;;;;;;1.70;1.60;;;25.30;59.60;;;;;;5068493;28;44297;-73
2022/08/12 10:03:50;;;;;;;1.63;1.63;;;25.30;60.50;;;;;;5069572;28;43804;-74
2022/08/12 10:06:31;;;;;;;1.47;1.47;;;25.30;59.90;;;;;;5065148;28;43741;-73
2022/08/12 10:09:20;;;;;;;1.37;1.37;;;25.20;60.30;;;;;;5069617;28;44012;-73
2022/08/12 10:14:43;;;;;;;1.60;1.60;;;25.20;60.40;;;;;;5069275;28;43873;-74
2022/08/12 10:17:20;;;;;;;3.33;2.17;;;25.10;60.40;;;;;;5069414;28;43891;-74
2022/08/12 10:19:50;;;;;;;3.73;2.17;;;25.10;60.50;;;;;;5069289;28;43971;-73
2022/08/12 10:22:20;;;;;;;3.07;2.17;;;25.10;60.30;;;;;;5068055;28;43882;-74
2022/08/12 10:31:02;;;;;;;3.10;2.37;;;25.00;61.30;;;;;;5069478;28;43947;-74
2022/08/12 10:33:33;;;;;;;2.93;2.60;;;25.00;61.60;;;;;;5069435;28;43970;-74
2022/08/12 10:36:22;;;;;;;3.97;2.50;;;25.10;61.20;;;;;;5067507;28;45771;-75
2022/08/12 10:39:08;;;;;;;3.37;2.70;;;25.20;61.40;;;;;;5067324;28;44878;-74
2022/08/12 10:44:59;;;;;;;3.37;3.07;;;25.40;60.10;;;;;;5015604;28;44051;-74
2022/08/12 10:47:27;;;;;;;3.70;2.53;;;25.40;59.60;;;;;;5053171;28;45682;-74
2022/08/12 10:50:15;;;;;;;3.20;2.53;;;25.30;60.00;;;;;;5068576;28;44161;-74
2022/08/12 10:53:07;;;;;;;2.87;2.57;;;25.30;59.80;;;;;;5067396;28;44028;-74
2022/08/12 10:55:36;;;;;;;4.03;2.60;;;25.20;60.10;;;;;;5061271;28;43454;-73
2022/08/12 10:58:06;;;;;;;6.63;3.03;;;25.20;59.90;;;;;;5068655;28;43930;-73
2022/08/12 11:00:55;;;;;;;2.80;2.30;;;25.10;60.20;;;;;;5065147;28;44007;-73
2022/08/12 11:03:43;;;;;;;3.10;2.47;;;25.10;59.40;;;;;;5068489;28;44053;-73
2022/08/12 11:06:31;;;;;;;2.50;2.30;;;25.10;60.00;;;;;;5069174;28;43360;-73
2022/08/12 11:09:19;;;;;;;2.37;2.20;;;25.00;60.30;;;;;;5068400;28;43909;-73
2022/08/12 11:12:07;;;;;;;2.87;2.03;;;25.00;59.60;;;;;;5068292;28;44082;-74
2022/08/12 11:14:59;;;;;;;3.30;2.27;;;25.00;58.60;;;;;;5068533;28;43314;-74
2022/08/12 11:17:46;;;;;;;4.87;2.40;;;25.00;58.20;;;;;;5068669;28;43939;-74
2022/08/12 11:20:22;;;;;;;6.13;2.27;;;25.10;58.00;;;;;;5068388;28;43998;-74
2022/08/12 11:22:56;;;;;;;2.53;2.10;;;25.30;58.10;;;;;;5066822;28;44591;-74
2022/08/12 11:25:26;;;;;;;2.57;2.30;;;25.30;58.00;;;;;;5068303;28;43849;-74
2022/08/12 11:28:14;;;;;;;2.30;2.20;;;25.30;58.20;;;;;;5068618;28;43965;-74
2022/08/12 11:30:44;;;;;;;2.83;2.63;;;25.30;58.70;;;;;;5068124;28;43623;-73
2022/08/12 11:33:12;;;;;;;2.30;2.20;;;25.30;59.00;;;;;;5066567;28;44599;-74
2022/08/12 11:36:05;;;;;;;3.50;2.47;;;25.30;59.20;;;;;;5066507;28;43861;-73
2022/08/12 11:38:43;;;;;;;2.40;2.30;;;25.20;59.40;;;;;;5068542;28;44026;-74
2022/08/12 11:41:17;;;;;;;2.00;1.90;;;25.10;58.90;;;;;;5067450;28;45131;-73
2022/08/12 11:43:58;;;;;;;2.43;2.20;;;25.10;59.90;;;;;;5067798;28;43913;-74
2022/08/12 11:46:48;;;;;;;2.00;1.90;;;25.10;60.10;;;;;;5067970;28;43483;-72
2022/08/12 11:49:23;;;;;;;2.30;2.10;;;25.10;60.00;;;;;;5068429;28;43955;-74
2022/08/12 11:52:00;;;;;;;2.13;2.10;;;25.00;60.10;;;;;;5067759;28;43771;-73
2022/08/12 11:54:29;;;;;;;2.30;2.20;;;25.00;60.80;;;;;;5067363;28;44050;-74
2022/08/12 11:56:58;;;;;;;2.10;2.00;;;25.00;61.00;;;;;;5066785;28;43866;-73
2022/08/12 11:59:29;;;;;;;2.00;1.90;;;25.10;60.80;;;;;;5067136;28;43438;-74
2022/08/12 12:02:18;;;;;;;2.00;2.00;;;25.10;60.00;;;;;;5065892;28;45560;-74
2022/08/12 12:04:48;;;;;;;2.07;1.97;;;25.30;60.10;;;;;;5067369;28;43976;-72
2022/08/12 12:07:21;;;;;;;2.00;1.90;;;25.30;60.00;;;;;;5066083;28;44010;-73
2022/08/12 12:10:09;;;;;;;2.13;2.03;;;25.30;59.90;;;;;;5067897;28;43983;-73
2022/08/12 12:12:38;;;;;;;2.13;1.93;;;25.30;60.10;;;;;;5067556;28;45386;-73
2022/08/12 12:15:17;;;;;;;1.80;1.80;;;25.20;60.40;;;;;;5067513;28;44127;-73
2022/08/12 12:18:06;;;;;;;1.80;1.80;;;25.20;60.30;;;;;;5067669;28;43920;-75
2022/08/12 12:20:39;;;;;;;1.93;1.70;;;25.10;60.40;;;;;;5067951;28;44031;-74
2022/08/12 12:23:07;;;;;;;2.30;2.10;;;25.10;61.00;;;;;;5066998;28;44988;-73
2022/08/12 12:25:55;;;;;;;2.07;2.07;;;25.10;61.30;;;;;;5066955;28;44013;-73
2022/08/12 12:28:37;;;;;;;1.80;1.80;;;25.10;61.10;;;;;;5067739;28;43334;-74
2022/08/12 12:31:06;;;;;;;1.87;1.80;;;25.20;60.80;;;;;;5067944;28;43907;-74
2022/08/12 12:33:56;;;;;;;1.70;1.70;;;25.30;60.30;;;;;;5067306;28;44002;-74
2022/08/12 12:36:26;;;;;;;1.80;1.70;;;25.40;60.30;;;;;;5067091;28;44074;-73
2022/08/12 12:38:57;;;;;;;1.90;1.80;;;25.30;60.10;;;;;;5067275;28;43945;-74
2022/08/12 12:41:28;;;;;;;1.90;1.80;;;25.30;60.30;;;;;;5067081;28;44022;-73
2022/08/12 12:44:16;;;;;;;2.20;2.10;;;25.30;60.70;;;;;;5066976;28;45051;-73
2022/08/12 12:46:57;;;;;;;1.90;1.80;;;25.20;60.60;;;;;;5066847;28;43995;-73
2022/08/12 12:49:26;;;;;;;1.80;1.80;;;25.20;60.70;;;;;;5067133;28;43994;-74
2022/08/12 12:51:54;;;;;;;1.77;1.73;;;25.10;61.00;;;;;;5065673;28;43987;-74
2022/08/12 12:54:51;;;;;;;2.33;1.70;;;25.10;61.60;;;;;;5066885;28;43960;-73
2022/08/12 12:57:19;;;;;;;2.10;2.00;;;25.20;61.40;;;;;;5066675;28;43892;-73
2022/08/12 13:00:16;;;;;;;1.77;1.77;;;25.20;61.10;;;;;;5067229;28;44033;-73
2022/08/12 13:02:51;;;;;;;1.90;1.90;;;25.30;60.90;;;;;;5067271;28;43790;-73
2022/08/12 13:05:24;;;;;;;1.53;1.53;;;25.30;60.70;;;;;;5066737;28;43960;-74
2022/08/12 13:07:55;;;;;;;1.87;1.87;;;25.30;60.60;;;;;;5065088;28;44860;-73
2022/08/12 13:10:29;;;;;;;1.85;1.85;;;25.30;61.00;;;;;;5068213;28;44031;-73
2022/08/12 13:13:01;;;;;;;2.00;1.90;;;25.20;61.10;;;;;;5069540;28;44170;-74
2022/08/12 13:15:49;;;;;;;1.70;1.70;;;25.20;61.10;;;;;;5070269;28;45057;-74
2022/08/12 13:18:17;;;;;;;1.57;1.57;;;25.10;61.10;;;;;;5070219;28;44037;-73
2022/08/12 13:20:58;;;;;;;1.80;1.80;;;25.10;61.70;;;;;;5070435;28;43907;-73
2022/08/12 13:23:26;;;;;;;1.57;1.57;;;25.10;61.70;;;;;;5070518;28;43939;-73
2022/08/12 13:26:06;;;;;;;1.77;1.77;;;25.10;61.60;;;;;;5070208;28;43920;-73
2022/08/12 13:28:41;;;;;;;1.67;1.67;;;25.10;61.60;;;;;;5068688;28;43840;-73
2022/08/12 13:31:12;;;;;;;1.63;1.63;;;25.00;62.20;;;;;;5068725;28;44035;-72
2022/08/12 13:33:41;;;;;;;1.53;1.53;;;25.00;62.30;;;;;;5070438;28;43848;-74
2022/08/12 13:36:30;;;;;;;1.60;1.60;;;25.10;62.10;;;;;;5069831;28;43820;-73
2022/08/12 13:38:58;;;;;;;1.70;1.60;;;25.20;61.70;;;;;;5069698;28;44015;-73
2022/08/12 13:41:35;;;;;;;1.50;1.50;;;25.30;61.40;;;;;;5069739;28;43906;-74
2022/08/12 13:44:05;;;;;;;1.70;1.70;;;25.40;61.20;;;;;;5070592;28;43881;-73
2022/08/12 13:46:39;;;;;;;1.40;1.40;;;25.40;61.00;;;;;;5069598;28;44883;-73
2022/08/12 13:49:10;;;;;;;1.63;1.60;;;25.40;60.90;;;;;;5069831;28;43999;-74
2022/08/12 13:51:52;;;;;;;1.93;1.83;;;25.30;61.30;;;;;;5069865;28;43956;-74
2022/08/12 13:54:23;;;;;;;1.40;1.40;;;25.30;61.50;;;;;;5070351;28;43772;-74
2022/08/12 13:56:52;;;;;;;1.70;1.70;;;25.30;61.30;;;;;;5069545;28;44951;-73
2022/08/12 13:59:22;;;;;;;1.60;1.60;;;25.20;61.40;;;;;;5068014;28;44981;-74
2022/08/12 14:01:53;;;;;;;1.50;1.50;;;25.20;61.90;;;;;;5069521;28;43385;-73
2022/08/12 14:04:23;;;;;;;1.50;1.50;;;25.10;61.80;;;;;;5068528;28;44221;-73
2022/08/12 14:06:57;;;;;;;1.70;1.70;;;25.10;61.70;;;;;;5069190;28;43958;-74
2022/08/12 14:09:28;;;;;;;1.60;1.60;;;25.10;61.70;;;;;;5067908;28;46527;-73
2022/08/12 14:11:56;;;;;;;1.70;1.70;;;25.10;62.20;;;;;;5069600;28;43942;-74
2022/08/12 14:14:27;;;;;;;1.50;1.50;;;25.10;62.80;;;;;;5069781;28;44064;-74
2022/08/12 14:17:02;;;;;;;1.50;1.50;;;25.10;62.60;;;;;;5069433;28;43876;-74
2022/08/12 14:19:34;;;;;;;1.50;1.50;;;25.20;62.20;;;;;;5069516;28;43836;-74
2022/08/12 14:22:21;;;;;;;1.60;1.60;;;25.30;61.80;;;;;;5068160;28;43989;-74
2022/08/12 14:24:53;;;;;;;1.70;1.70;;;25.40;61.70;;;;;;5069637;28;43778;-72
2022/08/12 14:27:22;;;;;;;1.60;1.50;;;25.40;61.40;;;;;;5068994;28;44177;-74
2022/08/12 14:30:11;;;;;;;1.57;1.57;;;25.40;61.30;;;;;;5069106;28;43938;-74
2022/08/12 14:32:51;;;;;;;1.60;1.60;;;25.30;61.70;;;;;;5064629;28;43442;-74
2022/08/12 14:35:19;;;;;;;1.40;1.40;;;25.30;62.50;;;;;;5069341;28;44002;-73
2022/08/12 14:37:52;;;;;;;1.30;1.30;;;25.20;61.70;;;;;;5068853;28;43992;-73
2022/08/12 14:40:27;;;;;;;1.60;1.50;;;25.20;61.70;;;;;;5068618;28;43940;-74
2022/08/12 14:42:57;;;;;;;1.50;1.50;;;25.10;62.10;;;;;;5069040;28;43955;-74
2022/08/12 14:45:25;;;;;;;1.30;1.30;;;25.10;62.70;;;;;;5067706;28;43970;-75
2022/08/12 14:48:13;;;;;;;1.63;1.57;;;25.20;62.70;;;;;;5068776;28;44484;-73
2022/08/12 14:50:42;;;;;;;1.30;1.30;;;25.30;62.30;;;;;;5067463;28;45416;-73
2022/08/12 14:53:34;;;;;;;1.47;1.47;;;25.30;61.90;;;;;;5065134;28;43817;-74
2022/08/12 14:56:24;;;;;;;1.73;1.70;;;25.40;61.80;;;;;;5067442;28;43895;-74
2022/08/12 15:02:19;;;;;;;1.30;1.30;;;25.30;61.90;;;;;;5066972;28;45032;-73
2022/08/12 15:04:49;;;;;;;1.30;1.30;;;25.30;62.10;;;;;;5068457;28;43950;-73
2022/08/12 15:07:17;;;;;;;1.20;1.20;;;25.20;61.80;;;;;;5068769;28;43957;-74
2022/08/12 15:10:08;;;;;;;1.50;1.50;;;25.20;61.90;;;;;;5068690;28;43900;-73
2022/08/12 15:12:37;;;;;;;1.23;1.23;;;25.10;62.70;;;;;;5066994;28;44633;-74
2022/08/12 15:15:08;;;;;;;1.20;1.20;;;25.10;62.90;;;;;;5068399;28;43936;-73
2022/08/12 15:17:38;;;;;;;1.20;1.20;;;25.20;62.70;;;;;;5067574;28;43967;-74
2022/08/12 15:20:07;;;;;;;1.47;1.47;;;25.30;62.50;;;;;;5068372;28;43965;-74
2022/08/12 15:22:55;;;;;;;1.37;1.37;;;25.30;62.10;;;;;;5066678;28;45074;-74